Time;durP1;ratioP1;P1;durP2;ratioP2;P2;SDS_P1;SDS_P2;PMS_P1;PMS_P2;Temp;Humidity;BMP_temperature;BMP_pressure;BME280_temperature;BME280_humidity;BME280_pressure;Samples;Min_cycle;Max_cycle;Signal;HPM_P1;HPM_P2
2023/09/23 00:01:08;;;;;;;3.03;2.83;;;15.30;99.90;;;;;;5193011;28;20191;-52
2023/09/23 00:03:39;;;;;;;3.37;2.60;;;15.30;99.90;;;;;;5212197;28;20868;-49
2023/09/23 00:06:10;;;;;;;6.03;4.00;;;15.40;99.90;;;;;;5210353;28;20675;-49
2023/09/23 00:08:41;;;;;;;2.97;2.77;;;15.30;99.90;;;;;;5214766;28;20282;-49
2023/09/23 00:11:12;;;;;;;3.37;3.13;;;15.30;99.90;;;;;;5215210;28;20457;-48
2023/09/23 00:13:43;;;;;;;5.40;3.30;;;15.20;99.90;;;;;;5222357;28;20374;-49
2023/09/23 00:16:17;;;;;;;3.50;3.07;;;15.30;99.90;;;;;;5213979;28;20462;-48
2023/09/23 00:18:47;;;;;;;3.10;2.80;;;15.30;99.90;;;;;;5210949;28;20684;-49
2023/09/23 00:21:18;;;;;;;4.10;3.77;;;15.40;99.90;;;;;;5211043;28;20551;-48
2023/09/23 00:23:49;;;;;;;3.47;3.27;;;15.20;99.90;;;;;;5210879;28;20211;-48
2023/09/23 00:26:20;;;;;;;3.53;3.33;;;15.20;99.90;;;;;;5211323;28;20210;-48
2023/09/23 00:28:51;;;;;;;3.10;2.90;;;15.10;99.90;;;;;;5211861;28;20174;-47
2023/09/23 00:31:22;;;;;;;2.50;2.40;;;15.10;99.90;;;;;;5218954;28;20826;-48
2023/09/23 00:33:53;;;;;;;3.87;2.90;;;15.10;99.90;;;;;;5209360;28;20183;-50
2023/09/23 00:36:24;;;;;;;2.90;2.70;;;15.10;99.90;;;;;;5216241;28;20473;-47
2023/09/23 00:38:56;;;;;;;2.40;2.30;;;15.10;99.90;;;;;;5225532;28;20250;-49
2023/09/23 00:41:28;;;;;;;2.93;2.73;;;15.10;99.90;;;;;;5217763;28;20950;-47
2023/09/23 00:44:01;;;;;;;3.37;2.93;;;15.10;99.90;;;;;;5214276;28;20511;-47
2023/09/23 00:46:35;;;;;;;2.70;2.60;;;15.10;99.90;;;;;;5213720;28;20457;-46
2023/09/23 00:49:07;;;;;;;2.97;2.70;;;15.20;99.90;;;;;;5219534;28;20456;-46
2023/09/23 00:51:39;;;;;;;5.33;3.87;;;15.10;99.90;;;;;;5196014;28;20445;-46
2023/09/23 00:54:14;;;;;;;6.83;3.17;;;15.10;99.90;;;;;;5213553;28;20494;-47
2023/09/23 00:56:46;;;;;;;3.73;3.53;;;15.10;99.90;;;;;;5216968;28;21506;-46
2023/09/23 00:59:17;;;;;;;4.57;2.83;;;15.20;99.90;;;;;;5215199;28;20429;-46
2023/09/23 01:01:51;;;;;;;3.53;3.30;;;15.10;99.90;;;;;;5213978;28;20437;-46
2023/09/23 01:04:23;;;;;;;3.77;3.23;;;15.20;99.90;;;;;;5213350;28;21061;-46
2023/09/23 01:06:55;;;;;;;4.73;3.60;;;15.20;99.90;;;;;;5207664;28;20573;-53
2023/09/23 01:09:27;;;;;;;2.73;2.40;;;15.20;99.90;;;;;;5219009;28;20437;-46
2023/09/23 01:11:58;;;;;;;3.17;2.87;;;15.20;99.90;;;;;;5210421;28;21027;-45
2023/09/23 01:14:29;;;;;;;3.93;3.27;;;15.20;99.90;;;;;;5218350;28;20461;-46
2023/09/23 01:17:02;;;;;;;2.80;2.67;;;15.20;99.90;;;;;;5218497;28;20215;-46
2023/09/23 01:19:34;;;;;;;3.37;2.60;;;15.20;99.90;;;;;;5212402;28;20274;-46
2023/09/23 01:22:05;;;;;;;3.20;2.80;;;15.10;99.90;;;;;;5215241;28;20533;-45
2023/09/23 01:24:36;;;;;;;2.50;2.30;;;15.10;99.90;;;;;;5212515;28;20688;-44
2023/09/23 01:27:08;;;;;;;2.67;2.47;;;15.30;99.90;;;;;;5216439;28;20206;-46
2023/09/23 01:29:39;;;;;;;4.57;2.90;;;15.30;99.90;;;;;;5216102;28;20607;-45
2023/09/23 01:32:41;;;;;;;2.83;2.20;;;15.20;99.90;;;;;;5219327;28;20533;-45
2023/09/23 01:35:16;;;;;;;2.83;2.30;;;15.10;99.90;;;;;;5224453;28;20214;-45
2023/09/23 01:37:48;;;;;;;2.93;2.60;;;15.10;99.90;;;;;;5218463;28;20433;-51
2023/09/23 01:40:19;;;;;;;2.40;2.30;;;15.10;99.90;;;;;;5216538;28;20438;-46
2023/09/23 01:42:51;;;;;;;2.13;2.10;;;14.90;99.90;;;;;;5222973;28;20484;-46
2023/09/23 01:45:22;;;;;;;5.50;2.23;;;15.00;99.90;;;;;;5214546;28;20240;-45
2023/09/23 01:47:56;;;;;;;2.23;2.13;;;15.10;99.90;;;;;;5220059;28;20454;-47
2023/09/23 01:50:27;;;;;;;3.30;1.87;;;15.10;99.90;;;;;;5225628;28;20428;-46
2023/09/23 01:53:00;;;;;;;2.83;1.73;;;15.10;99.90;;;;;;5217084;28;20429;-46
2023/09/23 01:55:31;;;;;;;1.60;1.60;;;15.00;99.90;;;;;;5219912;28;20454;-48
2023/09/23 01:58:02;;;;;;;2.07;1.87;;;15.00;99.90;;;;;;5219455;28;20461;-47
2023/09/23 02:00:36;;;;;;;1.63;1.60;;;14.90;99.90;;;;;;5215898;28;20179;-49
2023/09/23 02:03:06;;;;;;;2.33;2.23;;;14.80;99.90;;;;;;5218739;28;20255;-46
2023/09/23 02:05:37;;;;;;;2.87;2.67;;;14.70;99.90;;;;;;5216257;28;20818;-47
2023/09/23 02:08:08;;;;;;;2.00;1.90;;;14.60;99.90;;;;;;5217676;28;20197;-46
2023/09/23 02:10:46;;;;;;;3.27;2.10;;;14.60;99.90;;;;;;5222671;28;20321;-45
2023/09/23 02:13:18;;;;;;;1.83;1.73;;;14.60;99.90;;;;;;5228356;28;20179;-46
2023/09/23 02:15:51;;;;;;;2.93;2.70;;;14.50;99.90;;;;;;5220739;28;20458;-46
2023/09/23 02:18:22;;;;;;;1.60;1.50;;;14.70;99.90;;;;;;5225952;28;20445;-46
2023/09/23 02:20:52;;;;;;;2.17;1.97;;;14.70;99.90;;;;;;5203789;28;20430;-45
2023/09/23 02:23:23;;;;;;;1.80;1.80;;;14.80;99.90;;;;;;5217794;28;20203;-46
2023/09/23 02:25:54;;;;;;;2.13;2.03;;;14.80;99.90;;;;;;5217683;28;20199;-48
2023/09/23 02:28:25;;;;;;;2.27;1.77;;;14.80;99.90;;;;;;5219168;28;20179;-50
2023/09/23 02:30:56;;;;;;;3.00;2.33;;;14.70;99.90;;;;;;5213053;28;20183;-46
2023/09/23 02:33:26;;;;;;;1.87;1.80;;;14.50;99.90;;;;;;5214771;28;20186;-45
2023/09/23 02:35:58;;;;;;;2.77;2.07;;;14.40;99.90;;;;;;5213168;28;20233;-45
2023/09/23 02:38:31;;;;;;;2.13;2.00;;;14.60;99.90;;;;;;5214246;28;20542;-46
2023/09/23 02:41:04;;;;;;;1.73;1.63;;;14.40;99.90;;;;;;5220446;28;20437;-45
2023/09/23 02:43:35;;;;;;;2.10;2.07;;;14.60;99.90;;;;;;5217246;28;20461;-47
2023/09/23 02:46:06;;;;;;;1.87;1.87;;;14.50;99.90;;;;;;5219006;28;20499;-46
2023/09/23 02:48:37;;;;;;;1.63;1.40;;;14.60;99.90;;;;;;5214345;28;20434;-48
2023/09/23 02:51:08;;;;;;;5.50;1.97;;;14.60;99.90;;;;;;5211595;28;20438;-50
2023/09/23 02:53:39;;;;;;;1.77;1.60;;;14.50;99.90;;;;;;5214858;28;20690;-46
2023/09/23 02:56:10;;;;;;;1.80;1.70;;;14.50;99.90;;;;;;5210263;28;20200;-50
2023/09/23 02:58:43;;;;;;;2.40;1.90;;;14.40;99.90;;;;;;5214175;28;20196;-46
2023/09/23 03:01:14;;;;;;;1.50;1.50;;;14.30;99.90;;;;;;5219609;28;20477;-46
2023/09/23 03:03:46;;;;;;;1.40;1.40;;;14.30;99.90;;;;;;5217741;28;20492;-48
2023/09/23 03:06:18;;;;;;;1.70;1.60;;;14.30;99.90;;;;;;5211471;28;20815;-46
2023/09/23 03:08:53;;;;;;;3.43;2.00;;;14.30;99.90;;;;;;5220028;28;20485;-47
2023/09/23 03:11:26;;;;;;;1.30;1.30;;;14.30;99.90;;;;;;5221100;28;20942;-47
2023/09/23 03:13:58;;;;;;;1.70;1.60;;;14.30;99.90;;;;;;5214950;28;20435;-46
2023/09/23 03:16:29;;;;;;;4.73;2.40;;;14.30;99.90;;;;;;5220570;28;20825;-45
2023/09/23 03:19:10;;;;;;;3.33;1.47;;;14.30;99.90;;;;;;5217265;28;20794;-46
2023/09/23 03:21:45;;;;;;;1.07;1.07;;;14.10;99.90;;;;;;5212760;28;20430;-47
2023/09/23 03:24:15;;;;;;;1.77;1.60;;;14.20;99.90;;;;;;5216502;28;20523;-46
2023/09/23 03:26:46;;;;;;;2.83;1.50;;;14.20;99.90;;;;;;5220729;28;20446;-46
2023/09/23 03:29:18;;;;;;;1.20;1.20;;;14.10;99.90;;;;;;5215223;28;20574;-46
2023/09/23 03:31:49;;;;;;;4.17;1.60;;;14.10;99.90;;;;;;5216902;28;20425;-46
2023/09/23 03:34:21;;;;;;;1.70;1.60;;;14.10;99.90;;;;;;5228469;28;20874;-47
2023/09/23 03:36:53;;;;;;;1.60;1.50;;;14.10;99.90;;;;;;5220679;28;20563;-46
2023/09/23 03:39:25;;;;;;;1.50;1.40;;;14.00;99.90;;;;;;5220762;28;20441;-48
2023/09/23 03:41:56;;;;;;;1.37;1.23;;;14.20;99.90;;;;;;5223230;28;20437;-47
2023/09/23 03:44:27;;;;;;;4.83;1.90;;;14.00;99.90;;;;;;5213970;28;20488;-46
2023/09/23 03:47:00;;;;;;;1.80;1.30;;;14.20;99.90;;;;;;5213502;28;21117;-46
2023/09/23 03:49:31;;;;;;;1.20;1.20;;;14.20;99.90;;;;;;5220724;28;20203;-49
2023/09/23 03:52:05;;;;;;;3.03;1.07;;;14.30;99.90;;;;;;5211137;28;20957;-46
2023/09/23 03:54:36;;;;;;;1.50;1.13;;;14.30;99.90;;;;;;5216123;28;20445;-47
2023/09/23 03:57:07;;;;;;;1.57;1.37;;;14.20;99.90;;;;;;5217884;28;20469;-52
2023/09/23 03:59:39;;;;;;;1.20;1.20;;;14.20;99.90;;;;;;5225434;28;20183;-46
2023/09/23 04:02:10;;;;;;;1.13;1.13;;;14.10;99.90;;;;;;5212863;28;20457;-47
2023/09/23 04:04:41;;;;;;;1.00;1.00;;;14.10;99.90;;;;;;5217884;28;20500;-47
2023/09/23 04:07:16;;;;;;;1.17;1.17;;;14.00;99.90;;;;;;5217669;28;20481;-46
2023/09/23 04:09:47;;;;;;;2.80;2.70;;;14.00;99.90;;;;;;5212803;28;20179;-45
2023/09/23 04:12:18;;;;;;;1.23;1.23;;;14.00;99.90;;;;;;5215302;28;20436;-45
2023/09/23 04:14:50;;;;;;;1.20;1.10;;;14.00;99.90;;;;;;5212127;28;20895;-49
2023/09/23 04:17:20;;;;;;;4.20;1.23;;;14.00;99.90;;;;;;5216551;28;20190;-46
2023/09/23 04:19:53;;;;;;;1.80;1.43;;;14.00;99.90;;;;;;5212926;28;20512;-46
2023/09/23 04:22:24;;;;;;;1.13;1.13;;;14.00;99.90;;;;;;5211909;28;20668;-47
2023/09/23 04:24:54;;;;;;;2.37;1.37;;;13.90;99.90;;;;;;5220824;28;20457;-51
2023/09/23 04:27:26;;;;;;;3.50;1.10;;;13.90;99.90;;;;;;5214149;28;20180;-48
2023/09/23 04:29:56;;;;;;;1.17;1.07;;;13.90;99.90;;;;;;5212074;28;20183;-46
2023/09/23 04:32:27;;;;;;;2.70;1.17;;;13.90;99.90;;;;;;5212015;28;20434;-46
2023/09/23 04:34:58;;;;;;;1.17;1.00;;;13.80;99.90;;;;;;5209439;28;20671;-49
2023/09/23 04:37:29;;;;;;;1.13;1.13;;;13.70;99.90;;;;;;5218785;28;20434;-47
2023/09/23 04:40:00;;;;;;;1.27;1.27;;;13.70;99.90;;;;;;5219434;28;20179;-46
2023/09/23 04:42:30;;;;;;;1.77;1.50;;;13.60;99.90;;;;;;5215928;28;20548;-46
2023/09/23 04:45:02;;;;;;;2.83;1.60;;;13.60;99.90;;;;;;5210043;28;20203;-53
2023/09/23 04:47:35;;;;;;;1.17;1.17;;;13.50;99.90;;;;;;5217575;28;20313;-47
2023/09/23 04:50:08;;;;;;;2.00;1.20;;;13.50;99.90;;;;;;5209878;28;20828;-45
2023/09/23 04:52:40;;;;;;;2.10;1.20;;;13.50;99.90;;;;;;5209318;28;20434;-47
2023/09/23 04:55:11;;;;;;;0.73;0.73;;;13.40;99.90;;;;;;5215518;28;20449;-48
2023/09/23 04:57:42;;;;;;;0.90;0.90;;;13.50;99.90;;;;;;5214804;28;20441;-50
2023/09/23 05:00:19;;;;;;;0.80;0.80;;;13.50;99.90;;;;;;5209935;28;20194;-47
2023/09/23 05:02:50;;;;;;;5.87;1.20;;;13.40;99.90;;;;;;5213953;28;20643;-49
2023/09/23 05:05:23;;;;;;;1.47;1.20;;;13.50;99.90;;;;;;5213414;28;20461;-49
2023/09/23 05:07:54;;;;;;;0.60;0.60;;;13.40;99.90;;;;;;5194885;28;20229;-49
2023/09/23 05:10:26;;;;;;;1.00;1.00;;;13.40;99.90;;;;;;5209958;28;20426;-48
2023/09/23 05:12:57;;;;;;;2.83;1.10;;;13.50;99.90;;;;;;5215180;28;20186;-48
2023/09/23 05:15:29;;;;;;;4.67;1.07;;;13.40;99.90;;;;;;5216889;28;20481;-47
2023/09/23 05:18:00;;;;;;;1.27;1.17;;;13.40;99.90;;;;;;5218396;28;20245;-49
2023/09/23 05:20:33;;;;;;;0.70;0.70;;;13.40;99.90;;;;;;5226740;28;20935;-50
2023/09/23 05:23:05;;;;;;;4.67;1.23;;;13.30;99.90;;;;;;5220872;28;21014;-49
2023/09/23 05:25:40;;;;;;;1.17;1.17;;;13.60;99.90;;;;;;5226507;28;20572;-49
2023/09/23 05:28:10;;;;;;;1.70;1.17;;;13.50;99.90;;;;;;5211608;28;20440;-50
2023/09/23 05:30:41;;;;;;;1.13;1.00;;;13.50;99.90;;;;;;5214174;28;20433;-51
2023/09/23 05:33:14;;;;;;;0.60;0.60;;;13.40;99.90;;;;;;5214243;28;20201;-50
2023/09/23 05:35:45;;;;;;;2.93;1.00;;;13.50;99.90;;;;;;5219472;28;21017;-49
2023/09/23 05:38:16;;;;;;;1.90;0.87;;;13.50;99.90;;;;;;5220365;28;20822;-50
2023/09/23 05:40:47;;;;;;;2.10;1.17;;;13.70;99.90;;;;;;5210851;28;20525;-50
2023/09/23 05:43:18;;;;;;;4.43;1.07;;;13.60;99.90;;;;;;5211463;28;20218;-50
2023/09/23 05:45:49;;;;;;;1.40;1.30;;;13.60;99.90;;;;;;5220469;28;20653;-50
2023/09/23 05:48:20;;;;;;;1.97;0.93;;;13.60;99.90;;;;;;5215576;28;20587;-51
2023/09/23 05:50:52;;;;;;;2.10;1.43;;;13.60;99.90;;;;;;5209714;28;20232;-49
2023/09/23 05:53:23;;;;;;;1.57;1.40;;;13.70;99.90;;;;;;5222970;28;20476;-47
2023/09/23 05:55:53;;;;;;;0.70;0.70;;;13.80;99.90;;;;;;5210624;28;20478;-49
2023/09/23 05:58:24;;;;;;;0.93;0.70;;;13.90;99.90;;;;;;5221846;28;20198;-47
2023/09/23 06:00:55;;;;;;;0.93;0.73;;;14.30;99.90;;;;;;5213816;28;20183;-48
2023/09/23 06:03:25;;;;;;;3.90;0.87;;;16.10;99.90;;;;;;5216780;28;20206;-50
2023/09/23 06:05:56;;;;;;;0.60;0.60;;;18.80;99.90;;;;;;5216928;28;20204;-50
2023/09/23 06:08:27;;;;;;;0.73;0.43;;;21.10;99.90;;;;;;5215202;28;20180;-48
2023/09/23 06:11:03;;;;;;;1.07;0.73;;;22.90;99.60;;;;;;5218519;28;20673;-49
2023/09/23 06:13:34;;;;;;;1.33;0.90;;;24.60;90.90;;;;;;5206982;28;20547;-48
2023/09/23 06:16:06;;;;;;;2.13;1.10;;;25.80;77.80;;;;;;5213230;28;20457;-50
2023/09/23 06:18:36;;;;;;;1.10;1.10;;;26.20;68.90;;;;;;5225689;28;20210;-50
2023/09/23 06:21:08;;;;;;;0.90;0.90;;;26.90;64.50;;;;;;5217457;28;20476;-49
2023/09/23 06:23:39;;;;;;;1.80;0.63;;;27.40;61.50;;;;;;5217035;28;20238;-49
2023/09/23 06:26:10;;;;;;;1.50;0.80;;;28.10;57.70;;;;;;5218927;28;21457;-50
2023/09/23 06:28:41;;;;;;;1.03;0.80;;;28.30;54.70;;;;;;5219603;28;20449;-49
2023/09/23 06:31:12;;;;;;;1.20;0.90;;;29.10;53.00;;;;;;5222703;28;20444;-50
2023/09/23 06:33:43;;;;;;;3.13;1.00;;;29.60;49.80;;;;;;5215789;28;20242;-48
2023/09/23 06:36:13;;;;;;;0.73;0.73;;;28.90;49.30;;;;;;5217170;28;20215;-50
2023/09/23 06:38:44;;;;;;;1.57;1.03;;;29.40;49.70;;;;;;5218295;28;20195;-47
2023/09/23 06:41:15;;;;;;;0.50;0.50;;;29.50;47.50;;;;;;5222909;28;20196;-49
2023/09/23 06:43:46;;;;;;;0.67;0.67;;;29.80;47.70;;;;;;5219033;28;20205;-49
2023/09/23 06:46:16;;;;;;;3.67;1.03;;;30.50;46.40;;;;;;5216850;28;20202;-49
2023/09/23 06:48:47;;;;;;;0.90;0.50;;;30.90;44.70;;;;;;5212446;28;20275;-52
2023/09/23 06:51:18;;;;;;;0.90;0.90;;;31.00;44.40;;;;;;5213097;28;20266;-50
2023/09/23 06:53:49;;;;;;;0.60;0.60;;;31.20;42.50;;;;;;5224033;28;20286;-50
2023/09/23 06:56:19;;;;;;;1.03;1.03;;;30.60;43.20;;;;;;5217952;28;20691;-50
2023/09/23 06:58:50;;;;;;;1.17;0.70;;;30.50;43.00;;;;;;5208086;28;20253;-50
2023/09/23 07:01:21;;;;;;;0.53;0.53;;;31.20;43.10;;;;;;5212914;28;20271;-48
2023/09/23 07:03:52;;;;;;;0.70;0.70;;;31.50;41.60;;;;;;5218570;28;20573;-48
2023/09/23 07:06:23;;;;;;;0.67;0.60;;;32.10;40.80;;;;;;5221690;28;20260;-49
2023/09/23 07:08:54;;;;;;;0.93;0.73;;;32.20;40.00;;;;;;5211772;28;20522;-48
2023/09/23 07:11:25;;;;;;;1.17;1.17;;;32.10;40.00;;;;;;5216216;28;20437;-48
2023/09/23 07:13:58;;;;;;;3.70;0.77;;;32.60;39.60;;;;;;5219768;28;20185;-50
2023/09/23 07:16:29;;;;;;;1.13;0.80;;;32.00;38.70;;;;;;5215685;28;20367;-49
2023/09/23 07:19:00;;;;;;;1.60;0.80;;;31.30;39.30;;;;;;5215399;28;20528;-51
2023/09/23 07:21:31;;;;;;;1.77;0.77;;;31.20;40.10;;;;;;5214972;28;20670;-49
2023/09/23 07:24:03;;;;;;;0.63;0.63;;;31.50;39.60;;;;;;5204276;28;20470;-48
2023/09/23 07:26:33;;;;;;;0.63;0.63;;;31.30;39.20;;;;;;5211365;28;20256;-50
2023/09/23 07:29:04;;;;;;;0.43;0.43;;;30.70;39.70;;;;;;5214868;28;20766;-49
2023/09/23 07:31:35;;;;;;;0.90;0.53;;;30.40;40.00;;;;;;5218155;28;20225;-49
2023/09/23 07:34:06;;;;;;;4.40;0.77;;;30.60;39.70;;;;;;5214275;28;20289;-50
2023/09/23 07:36:37;;;;;;;0.50;0.50;;;30.30;39.40;;;;;;5213161;28;20606;-50
2023/09/23 07:39:07;;;;;;;0.60;0.60;;;29.00;41.10;;;;;;5217106;28;20197;-49
2023/09/23 07:41:39;;;;;;;1.17;1.07;;;28.80;41.40;;;;;;5218037;28;20184;-48
2023/09/23 07:44:11;;;;;;;0.87;0.67;;;28.50;42.20;;;;;;5212293;28;20203;-49
2023/09/23 07:46:42;;;;;;;1.37;0.60;;;27.40;43.00;;;;;;5212713;28;21039;-48
2023/09/23 07:49:13;;;;;;;0.70;0.70;;;26.70;44.90;;;;;;5224826;28;20746;-50
2023/09/23 07:51:44;;;;;;;2.23;0.80;;;27.30;44.80;;;;;;5217174;28;20434;-50
2023/09/23 07:54:14;;;;;;;0.60;0.60;;;27.40;44.40;;;;;;5214286;28;21628;-50
2023/09/23 07:56:46;;;;;;;0.60;0.60;;;26.30;46.10;;;;;;5215462;28;20283;-49
2023/09/23 07:59:16;;;;;;;0.90;0.90;;;25.40;46.50;;;;;;5203566;28;20876;-50
2023/09/23 08:01:48;;;;;;;0.70;0.67;;;24.20;49.30;;;;;;5209930;28;20549;-49
2023/09/23 08:04:18;;;;;;;0.60;0.60;;;23.70;50.20;;;;;;5216403;28;20210;-51
2023/09/23 08:06:49;;;;;;;0.73;0.67;;;23.00;51.00;;;;;;5219832;28;20453;-51
2023/09/23 08:09:20;;;;;;;4.10;1.03;;;22.10;52.60;;;;;;5197070;28;20187;-50
2023/09/23 08:11:51;;;;;;;0.70;0.67;;;21.40;53.70;;;;;;5214215;28;20180;-51
2023/09/23 08:14:22;;;;;;;0.80;0.70;;;20.40;55.00;;;;;;5216163;28;20933;-50
2023/09/23 08:16:53;;;;;;;2.73;0.90;;;19.70;56.90;;;;;;5217466;28;20207;-51
2023/09/23 08:19:23;;;;;;;0.80;0.80;;;19.20;58.30;;;;;;5211666;28;20277;-52
2023/09/23 08:21:54;;;;;;;0.70;0.70;;;18.70;59.40;;;;;;5215310;28;20950;-48
2023/09/23 08:24:25;;;;;;;3.33;1.40;;;18.40;60.20;;;;;;5214305;28;20265;-49
2023/09/23 08:26:56;;;;;;;4.63;0.80;;;18.20;61.70;;;;;;5217875;28;20214;-50
2023/09/23 08:29:29;;;;;;;0.63;0.63;;;17.90;62.70;;;;;;5215031;28;20183;-49
2023/09/23 08:32:00;;;;;;;0.77;0.77;;;17.60;63.60;;;;;;5212447;28;20449;-49
2023/09/23 08:34:31;;;;;;;0.87;0.87;;;17.40;64.60;;;;;;5211941;28;20441;-49
2023/09/23 08:37:02;;;;;;;2.40;1.20;;;17.40;65.60;;;;;;5212725;28;21184;-50
2023/09/23 08:39:33;;;;;;;1.33;0.60;;;17.40;66.40;;;;;;5207437;28;20194;-49
2023/09/23 08:42:04;;;;;;;1.13;0.60;;;17.70;66.40;;;;;;5206253;28;20461;-50
2023/09/23 08:44:36;;;;;;;1.80;1.20;;;17.80;66.40;;;;;;5214166;28;20226;-50
2023/09/23 08:47:08;;;;;;;0.63;0.63;;;18.00;66.90;;;;;;5207343;28;20460;-51
2023/09/23 08:49:39;;;;;;;1.57;1.53;;;18.00;66.70;;;;;;5206500;28;20524;-49
2023/09/23 08:52:12;;;;;;;1.77;1.67;;;18.20;67.20;;;;;;5221121;28;20953;-49
2023/09/23 08:54:46;;;;;;;0.83;0.83;;;18.30;67.70;;;;;;5216661;28;20524;-50
2023/09/23 08:57:17;;;;;;;0.77;0.77;;;18.30;67.40;;;;;;5220159;28;20973;-49
2023/09/23 08:59:48;;;;;;;4.67;1.20;;;18.30;67.40;;;;;;5223787;28;20452;-50
2023/09/23 09:02:25;;;;;;;1.40;1.30;;;18.40;67.70;;;;;;5215058;28;20255;-51
2023/09/23 09:04:57;;;;;;;3.67;0.80;;;18.60;67.80;;;;;;5207004;28;20464;-49
2023/09/23 09:07:37;;;;;;;1.50;0.80;;;18.60;67.70;;;;;;5213285;28;20457;-51
2023/09/23 09:10:08;;;;;;;0.67;0.67;;;18.80;67.50;;;;;;5210473;28;20528;-51
2023/09/23 09:12:39;;;;;;;2.03;0.90;;;19.10;66.60;;;;;;5215372;28;20426;-50
2023/09/23 09:15:09;;;;;;;0.60;0.60;;;19.50;66.00;;;;;;5213967;28;20856;-51
2023/09/23 09:17:44;;;;;;;1.23;0.70;;;19.60;65.40;;;;;;5211128;28;20184;-51
2023/09/23 09:20:15;;;;;;;3.50;0.80;;;19.80;65.00;;;;;;5215813;28;20236;-51
2023/09/23 09:22:46;;;;;;;1.00;1.00;;;19.70;64.40;;;;;;5221838;28;20437;-51
2023/09/23 09:25:21;;;;;;;0.63;0.63;;;19.80;63.50;;;;;;5207730;28;20212;-50
2023/09/23 09:27:53;;;;;;;0.70;0.70;;;19.70;63.50;;;;;;5216487;28;20651;-49
2023/09/23 09:30:23;;;;;;;1.00;1.00;;;19.60;64.10;;;;;;5213378;28;20519;-51
2023/09/23 09:33:00;;;;;;;0.70;0.70;;;19.20;64.60;;;;;;5217200;28;20475;-49
2023/09/23 09:35:33;;;;;;;0.80;0.80;;;18.90;65.50;;;;;;5213711;28;20210;-51
2023/09/23 09:38:07;;;;;;;1.03;0.93;;;18.80;65.80;;;;;;5209083;28;20510;-50
2023/09/23 09:40:38;;;;;;;1.47;1.47;;;18.70;66.20;;;;;;5215356;28;20444;-49
2023/09/23 09:43:09;;;;;;;1.10;1.07;;;18.60;66.50;;;;;;5212324;28;20441;-50
2023/09/23 09:45:42;;;;;;;0.87;0.87;;;18.50;65.50;;;;;;5211054;28;20207;-50
2023/09/23 09:48:14;;;;;;;0.97;0.97;;;18.50;66.40;;;;;;5210772;28;20199;-50
2023/09/23 09:50:46;;;;;;;1.50;1.50;;;18.40;66.60;;;;;;5210498;28;20798;-50
2023/09/23 09:53:19;;;;;;;0.93;0.93;;;18.50;66.60;;;;;;5207962;28;20620;-49
2023/09/23 09:55:50;;;;;;;1.40;1.40;;;18.50;66.60;;;;;;5212190;28;20485;-51
2023/09/23 09:58:23;;;;;;;1.60;1.10;;;18.70;66.50;;;;;;5211694;28;20460;-51
2023/09/23 10:00:56;;;;;;;1.00;1.00;;;18.80;66.80;;;;;;5213819;28;20449;-52
2023/09/23 10:03:28;;;;;;;2.10;1.07;;;19.00;66.50;;;;;;5217068;28;20954;-49
2023/09/23 10:06:02;;;;;;;1.20;1.17;;;19.00;66.20;;;;;;5217201;28;20875;-51
2023/09/23 10:08:38;;;;;;;1.40;1.40;;;19.00;66.50;;;;;;5217468;28;20454;-51
2023/09/23 10:11:09;;;;;;;1.43;1.33;;;19.10;66.80;;;;;;5213398;28;20533;-51
2023/09/23 10:13:42;;;;;;;1.53;1.20;;;18.90;66.20;;;;;;5221341;28;20576;-50
2023/09/23 10:16:17;;;;;;;1.70;1.60;;;19.00;67.10;;;;;;5212940;28;20286;-49
2023/09/23 10:18:56;;;;;;;1.47;1.43;;;19.10;66.80;;;;;;5210407;28;20469;-51
2023/09/23 10:21:27;;;;;;;2.23;1.50;;;18.80;66.60;;;;;;5214379;28;20645;-51
2023/09/23 10:24:02;;;;;;;2.00;1.90;;;18.80;67.20;;;;;;5196004;28;20460;-50
2023/09/23 10:26:33;;;;;;;3.60;2.30;;;18.80;67.90;;;;;;5210860;28;20490;-52
2023/09/23 10:29:05;;;;;;;2.00;2.00;;;18.90;67.60;;;;;;5214199;28;20445;-49
2023/09/23 10:31:37;;;;;;;2.20;2.10;;;18.70;68.40;;;;;;5210737;28;20333;-51
2023/09/23 10:34:10;;;;;;;2.30;2.00;;;18.80;69.00;;;;;;5215240;28;20468;-49
2023/09/23 10:36:40;;;;;;;3.93;2.33;;;18.90;69.10;;;;;;5212396;28;20469;-50
2023/09/23 10:39:15;;;;;;;2.60;2.40;;;18.90;68.90;;;;;;5215252;28;20957;-49
2023/09/23 10:41:46;;;;;;;3.97;3.50;;;18.80;69.60;;;;;;5218528;28;20205;-51
2023/09/23 10:44:23;;;;;;;1.40;1.30;;;18.80;70.30;;;;;;5218724;28;20465;-50
2023/09/23 10:46:54;;;;;;;1.43;1.43;;;18.90;70.90;;;;;;5216667;28;20207;-50
2023/09/23 10:49:25;;;;;;;3.37;3.17;;;19.20;70.40;;;;;;5215834;28;20437;-51
2023/09/23 10:51:57;;;;;;;2.40;2.30;;;19.30;70.10;;;;;;5212331;28;20194;-52
2023/09/23 10:54:29;;;;;;;2.80;1.60;;;19.30;69.10;;;;;;5216584;28;20477;-49
2023/09/23 10:57:00;;;;;;;2.23;1.20;;;18.90;69.30;;;;;;5213304;28;20473;-49
2023/09/23 10:59:31;;;;;;;2.07;1.97;;;18.60;70.00;;;;;;5218057;28;20437;-49
2023/09/23 11:02:05;;;;;;;3.20;2.13;;;18.30;70.90;;;;;;5211510;28;20444;-48
2023/09/23 11:04:35;;;;;;;1.40;1.33;;;18.30;72.00;;;;;;5216745;28;20462;-53
2023/09/23 11:07:06;;;;;;;1.20;1.20;;;18.20;72.70;;;;;;5211771;28;20969;-51
2023/09/23 11:09:38;;;;;;;1.40;1.40;;;18.30;73.30;;;;;;5211233;28;20171;-50
2023/09/23 11:12:13;;;;;;;1.53;1.10;;;18.20;73.00;;;;;;5211218;28;20191;-49
2023/09/23 11:14:46;;;;;;;1.20;1.10;;;18.20;69.60;;;;;;5208799;28;20867;-48
2023/09/23 11:17:29;;;;;;;4.83;1.67;;;18.30;70.00;;;;;;5208909;28;20461;-48
2023/09/23 11:20:00;;;;;;;1.43;1.33;;;18.30;69.30;;;;;;5211720;28;20439;-47
2023/09/23 11:22:32;;;;;;;1.67;1.10;;;18.40;69.60;;;;;;5212139;28;21757;-49
2023/09/23 11:25:09;;;;;;;1.87;1.57;;;18.60;69.10;;;;;;5209200;28;20540;-49
2023/09/23 11:27:47;;;;;;;2.60;2.40;;;18.70;68.50;;;;;;5213089;28;20506;-50
2023/09/23 11:30:17;;;;;;;1.30;1.30;;;18.70;67.60;;;;;;5215477;28;20433;-49
2023/09/23 11:32:51;;;;;;;2.03;1.80;;;18.90;68.40;;;;;;5214950;28;20781;-49
2023/09/23 11:35:23;;;;;;;2.67;1.63;;;19.00;67.20;;;;;;5218608;28;20298;-48
2023/09/23 11:37:54;;;;;;;2.20;1.53;;;19.10;67.30;;;;;;5215804;28;20429;-49
2023/09/23 11:40:25;;;;;;;1.10;1.10;;;19.10;67.00;;;;;;5217083;28;20429;-47
2023/09/23 11:42:56;;;;;;;1.40;1.30;;;19.20;67.50;;;;;;5215371;28;20464;-48
2023/09/23 11:45:27;;;;;;;1.70;1.00;;;19.40;67.90;;;;;;5217641;28;20305;-49
2023/09/23 11:47:59;;;;;;;1.00;1.00;;;19.40;66.50;;;;;;5201410;28;20269;-48
2023/09/23 11:50:30;;;;;;;1.47;1.20;;;19.30;65.80;;;;;;5213373;28;20430;-50
2023/09/23 11:53:02;;;;;;;1.63;1.53;;;19.30;66.20;;;;;;5210829;28;20808;-50
2023/09/23 11:55:33;;;;;;;1.00;1.00;;;19.10;66.40;;;;;;5215785;28;20252;-51
2023/09/23 11:58:04;;;;;;;3.73;1.43;;;18.80;67.40;;;;;;5217782;28;20456;-49
2023/09/23 12:00:35;;;;;;;1.10;1.10;;;18.60;67.40;;;;;;5211605;28;21092;-49
2023/09/23 12:03:06;;;;;;;0.93;0.80;;;18.60;67.50;;;;;;5211229;28;20196;-49
2023/09/23 12:05:37;;;;;;;1.60;1.50;;;18.50;66.00;;;;;;5214637;28;20207;-47
2023/09/23 12:08:09;;;;;;;2.07;1.87;;;18.40;65.90;;;;;;5214042;28;20488;-49
2023/09/23 12:10:40;;;;;;;3.90;1.13;;;18.30;66.60;;;;;;5212649;28;20175;-47
2023/09/23 12:13:11;;;;;;;1.53;1.43;;;18.20;67.10;;;;;;5207456;28;20510;-50
2023/09/23 12:15:42;;;;;;;1.80;1.43;;;18.20;67.90;;;;;;5217441;28;20238;-48
2023/09/23 12:18:13;;;;;;;1.30;1.20;;;18.10;68.30;;;;;;5215477;28;20555;-49
2023/09/23 12:20:43;;;;;;;2.93;1.90;;;18.10;68.80;;;;;;5215338;28;20191;-48
2023/09/23 12:23:15;;;;;;;0.93;0.93;;;18.10;69.30;;;;;;5218349;28;20207;-48
2023/09/23 12:25:46;;;;;;;2.23;2.13;;;18.10;69.60;;;;;;5213749;28;20215;-49
2023/09/23 12:28:17;;;;;;;2.20;1.03;;;18.20;69.70;;;;;;5217787;28;20785;-49
2023/09/23 12:30:48;;;;;;;0.80;0.80;;;18.20;68.80;;;;;;5216093;28;20189;-48
2023/09/23 12:33:19;;;;;;;6.20;0.97;;;18.10;69.30;;;;;;5217862;28;20448;-47
2023/09/23 12:35:49;;;;;;;6.37;3.77;;;18.10;69.20;;;;;;5218083;28;20480;-49
2023/09/23 12:38:20;;;;;;;2.70;1.40;;;18.40;69.20;;;;;;5219167;28;20183;-48
2023/09/23 12:40:51;;;;;;;1.87;1.77;;;18.70;68.50;;;;;;5210663;28;20248;-49
2023/09/23 12:43:22;;;;;;;1.63;1.63;;;18.60;67.70;;;;;;5215586;28;20209;-49
2023/09/23 12:45:53;;;;;;;1.43;1.27;;;18.50;67.90;;;;;;5212947;28;20210;-47
2023/09/23 12:48:24;;;;;;;2.83;1.07;;;18.50;68.20;;;;;;5219054;28;20183;-47
2023/09/23 12:50:55;;;;;;;1.37;1.27;;;18.40;67.40;;;;;;5215841;28;20442;-48
2023/09/23 12:53:26;;;;;;;1.03;1.03;;;18.40;67.70;;;;;;5196021;28;20442;-50
2023/09/23 12:55:57;;;;;;;1.80;1.70;;;18.40;67.80;;;;;;5211911;28;20222;-48
2023/09/23 12:58:27;;;;;;;3.53;2.93;;;18.40;67.50;;;;;;5208589;28;20248;-49
2023/09/23 13:00:59;;;;;;;4.03;3.37;;;18.50;67.90;;;;;;5211746;28;20175;-48
2023/09/23 13:03:29;;;;;;;1.60;1.50;;;18.50;67.70;;;;;;5212254;28;20437;-47
2023/09/23 13:06:00;;;;;;;0.80;0.80;;;18.70;67.50;;;;;;5218795;28;20460;-51
2023/09/23 13:08:31;;;;;;;2.10;1.50;;;18.90;67.20;;;;;;5209518;28;20274;-50
2023/09/23 13:11:02;;;;;;;3.70;2.23;;;19.00;67.00;;;;;;5211604;28;20253;-48